createdAt,value
2022-09-04T00:01:45.312Z,8.35
2022-09-04T00:04:22.149Z,8.95
2022-09-04T00:07:01.299Z,8.82
2022-09-04T00:09:37.556Z,9.15
2022-09-04T00:12:08.877Z,8.40
2022-09-04T00:14:46.421Z,8.23
2022-09-04T00:17:20.863Z,9.15
2022-09-04T00:19:56.259Z,7.97
2022-09-04T00:22:32.793Z,7.82
2022-09-04T00:25:10.341Z,8.10
2022-09-04T00:27:45.160Z,8.80
2022-09-04T00:30:19.812Z,9.13
2022-09-04T00:32:55.822Z,8.95
2022-09-04T00:35:31.518Z,7.95
2022-09-04T00:38:05.079Z,8.98
2022-09-04T00:40:35.782Z,8.25
2022-09-04T00:43:39.690Z,8.23
2022-09-04T00:46:30.393Z,8.63
2022-09-04T00:49:19.155Z,9.07
2022-09-04T00:51:55.987Z,8.32
2022-09-04T00:54:42.593Z,8.48
2022-09-04T00:57:45.144Z,8.55
2022-09-04T01:00:15.682Z,8.25
2022-09-04T01:03:13.935Z,8.40
2022-09-04T01:05:58.480Z,7.97
2022-09-04T01:08:43.208Z,7.78
2022-09-04T01:11:18.810Z,8.60
2022-09-04T01:13:55.214Z,9.48
2022-09-04T01:16:28.394Z,8.82
2022-09-04T01:19:01.462Z,8.82
2022-09-04T01:22:00.871Z,8.57
2022-09-04T01:24:58.315Z,9.50
2022-09-04T01:27:31.161Z,10.57
2022-09-04T01:30:06.929Z,10.77
2022-09-04T01:32:46.728Z,9.80
2022-09-04T01:35:27.145Z,9.65
2022-09-04T01:38:04.111Z,10.20
2022-09-04T01:40:39.722Z,10.82
2022-09-04T01:43:12.450Z,11.15
2022-09-04T01:46:12.092Z,11.18
2022-09-04T01:48:46.987Z,11.10
2022-09-04T01:51:24.907Z,11.25
2022-09-04T01:54:06.625Z,10.50
2022-09-04T01:56:41.256Z,11.00
2022-09-04T01:59:26.766Z,10.75
2022-09-04T02:02:02.925Z,11.65
2022-09-04T02:04:38.124Z,10.48
2022-09-04T02:07:18.091Z,11.10
2022-09-04T02:09:55.062Z,11.20
2022-09-04T02:12:36.039Z,11.63
2022-09-04T02:15:13.895Z,12.80
2022-09-04T02:17:48.761Z,11.90
2022-09-04T02:20:25.834Z,12.25
2022-09-04T02:23:06.018Z,13.50
2022-09-04T02:25:41.863Z,11.45
2022-09-04T02:28:29.426Z,12.70
2022-09-04T02:31:06.705Z,12.70
2022-09-04T02:33:41.330Z,12.07
2022-09-04T02:36:15.547Z,13.10
2022-09-04T02:38:51.172Z,13.23
2022-09-04T02:41:27.428Z,12.80
2022-09-04T02:44:05.209Z,14.55
2022-09-04T02:46:43.271Z,12.05
2022-09-04T02:49:19.907Z,12.43
2022-09-04T02:52:01.997Z,11.15
2022-09-04T02:55:01.930Z,11.27
2022-09-04T02:57:44.710Z,10.95
2022-09-04T03:00:18.358Z,12.70
2022-09-04T03:02:59.243Z,12.90
2022-09-04T03:05:31.141Z,12.02
2022-09-04T03:08:06.225Z,12.50
2022-09-04T03:10:40.501Z,12.35
2022-09-04T03:13:14.430Z,12.63
2022-09-04T03:15:47.796Z,13.32
2022-09-04T03:18:24.838Z,11.73
2022-09-04T03:20:55.648Z,11.15
2022-09-04T03:23:33.646Z,14.13
2022-09-04T03:26:21.382Z,12.82
2022-09-04T03:29:12.574Z,12.45
2022-09-04T03:31:51.677Z,11.75
2022-09-04T03:34:43.035Z,12.85
2022-09-04T03:37:25.801Z,11.98
2022-09-04T03:42:36.810Z,12.57
2022-09-04T03:45:19.239Z,12.02
2022-09-04T03:48:00.914Z,12.30
2022-09-04T03:50:42.517Z,13.98
2022-09-04T03:53:17.033Z,13.95
2022-09-04T03:56:30.118Z,11.77
2022-09-04T04:01:41.845Z,13.70
2022-09-04T04:04:42.365Z,13.38
2022-09-04T04:07:24.203Z,14.70
2022-09-04T04:10:10.314Z,15.18
2022-09-04T04:12:50.969Z,13.85
2022-09-04T04:15:33.608Z,13.85
2022-09-04T04:18:17.991Z,15.98
2022-09-04T04:20:52.677Z,14.43
2022-09-04T04:23:57.979Z,15.70
2022-09-04T04:26:40.675Z,16.15
2022-09-04T04:29:40.738Z,18.42
2022-09-04T04:32:25.532Z,15.70
2022-09-04T04:35:11.508Z,14.10
2022-09-04T04:37:51.881Z,14.85
2022-09-04T04:40:32.650Z,17.13
2022-09-04T04:43:09.966Z,18.67
2022-09-04T04:45:54.858Z,17.05
2022-09-04T04:48:43.437Z,17.30
2022-09-04T04:51:40.674Z,16.52
2022-09-04T04:54:24.906Z,19.42
2022-09-04T04:56:59.712Z,17.67
2022-09-04T04:59:35.950Z,20.88
2022-09-04T05:02:14.372Z,17.77
2022-09-04T05:04:52.400Z,18.13
2022-09-04T05:07:37.293Z,22.92
2022-09-04T05:10:16.504Z,24.73
2022-09-04T05:12:56.737Z,24.40
2022-09-04T05:15:35.997Z,26.33
2022-09-04T05:18:20.798Z,27.75
2022-09-04T05:20:55.080Z,23.88
2022-09-04T05:23:30.698Z,26.05
2022-09-04T05:26:07.491Z,26.70
2022-09-04T05:28:48.585Z,21.13
2022-09-04T05:31:25.449Z,22.60
2022-09-04T05:34:01.174Z,22.83
2022-09-04T05:36:41.129Z,26.25
2022-09-04T05:39:19.090Z,26.33
2022-09-04T05:42:04.467Z,26.50
2022-09-04T05:44:46.753Z,26.02
2022-09-04T05:47:30.353Z,25.75
2022-09-04T05:50:22.861Z,27.23
2022-09-04T05:53:14.410Z,30.20
2022-09-04T05:56:10.530Z,25.52
2022-09-04T05:59:03.270Z,27.75
2022-09-04T06:04:47.766Z,26.25
2022-09-04T06:07:22.785Z,30.13
2022-09-04T06:10:00.790Z,31.75
2022-09-04T06:12:50.121Z,29.98
2022-09-04T06:15:29.391Z,35.50
2022-09-04T06:18:10.714Z,33.90
2022-09-04T06:21:05.913Z,32.22
2022-09-04T06:24:00.805Z,33.40
2022-09-04T06:27:03.290Z,31.65
2022-09-04T06:29:53.142Z,38.40
2022-09-04T06:33:09.872Z,39.83
2022-09-04T06:36:07.623Z,38.78
2022-09-04T06:38:50.074Z,35.58
2022-09-04T06:41:43.890Z,35.40
2022-09-04T06:44:25.235Z,34.92
2022-09-04T06:47:03.707Z,36.08
2022-09-04T06:49:41.689Z,36.85
2022-09-04T06:52:19.961Z,37.85
2022-09-04T06:54:59.148Z,38.50
2022-09-04T06:57:48.156Z,37.95
2022-09-04T07:00:18.167Z,37.38
2022-09-04T07:03:09.225Z,37.72
2022-09-04T07:05:50.634Z,41.35
2022-09-04T07:08:32.992Z,36.88
2022-09-04T07:11:11.281Z,37.85
2022-09-04T07:13:52.206Z,42.33
2022-09-04T07:16:31.739Z,42.20
2022-09-04T07:19:39.706Z,47.67
2022-09-04T07:22:36.112Z,43.88
2022-09-04T07:25:18.338Z,46.38
2022-09-04T07:27:56.858Z,51.00
2022-09-04T07:30:26.072Z,44.72
2022-09-04T07:32:58.351Z,45.35
2022-09-04T07:35:34.402Z,43.30
2022-09-04T07:38:20.733Z,56.53
2022-09-04T07:40:54.191Z,51.28
2022-09-04T07:43:30.977Z,56.15
2022-09-04T07:46:05.378Z,66.07
2022-09-04T07:48:41.090Z,72.63
2022-09-04T07:51:13.226Z,72.63
2022-09-04T07:54:08.422Z,68.95
2022-09-04T07:56:57.394Z,71.53
2022-09-04T08:00:00.288Z,76.18
2022-09-04T08:02:38.158Z,69.13
2022-09-04T08:05:30.876Z,70.47
2022-09-04T08:08:38.214Z,68.65
2022-09-04T08:11:36.053Z,80.70
2022-09-04T08:14:23.588Z,74.15
2022-09-04T08:17:03.433Z,74.78
2022-09-04T08:19:45.533Z,72.97
2022-09-04T08:22:17.146Z,69.18
2022-09-04T08:24:58.734Z,75.05
2022-09-04T08:27:47.637Z,73.60
2022-09-04T08:30:20.610Z,76.93
2022-09-04T08:33:11.856Z,76.30
2022-09-04T08:35:50.957Z,74.40
2022-09-04T08:38:51.510Z,72.03
2022-09-04T08:42:02.277Z,71.07
2022-09-04T08:45:09.224Z,68.28
2022-09-04T08:48:25.912Z,65.80
2022-09-04T08:51:14.308Z,65.95
2022-09-04T08:54:17.649Z,58.10
2022-09-04T08:56:57.863Z,55.10
2022-09-04T08:59:50.050Z,55.03
2022-09-04T09:02:52.213Z,58.17
2022-09-04T09:05:56.706Z,58.70
2022-09-04T09:08:56.431Z,59.17
2022-09-04T09:11:57.454Z,57.63
2022-09-04T09:15:16.823Z,49.60
2022-09-04T09:18:02.037Z,45.28
2022-09-04T09:20:36.459Z,45.97
2022-09-04T09:23:20.745Z,42.30
2022-09-04T09:25:53.432Z,46.72
2022-09-04T09:29:00.210Z,41.42
2022-09-04T09:31:47.427Z,40.30
2022-09-04T09:34:48.267Z,38.05
2022-09-04T09:37:50.122Z,39.85
2022-09-04T09:41:02.433Z,36.40
2022-09-04T09:43:56.627Z,33.25
2022-09-04T09:46:52.031Z,36.25
2022-09-04T09:50:00.590Z,32.92
2022-09-04T09:52:57.099Z,32.65
2022-09-04T09:56:00.580Z,32.35
2022-09-04T09:58:53.500Z,29.08
2022-09-04T10:01:49.199Z,24.55
2022-09-04T10:05:00.889Z,16.63
2022-09-04T10:07:56.218Z,20.35
2022-09-04T10:10:57.782Z,21.60
2022-09-04T10:13:51.242Z,21.15
2022-09-04T10:16:58.661Z,20.52
2022-09-04T10:19:46.413Z,18.67
2022-09-04T10:22:36.745Z,16.80
2022-09-04T10:25:48.883Z,20.75
2022-09-04T10:28:43.046Z,19.98
2022-09-04T10:31:44.499Z,18.40
2022-09-04T10:34:27.795Z,17.67
2022-09-04T10:37:10.770Z,21.58
2022-09-04T10:40:08.976Z,19.80
2022-09-04T10:42:50.263Z,23.95
2022-09-04T10:45:26.890Z,20.10
2022-09-04T10:48:28.964Z,19.42
2022-09-04T10:51:37.402Z,20.98
2022-09-04T10:54:48.121Z,22.50
2022-09-04T10:57:30.731Z,24.48
2022-09-04T11:00:08.671Z,24.60
2022-09-04T11:03:18.141Z,19.95
2022-09-04T11:06:03.334Z,22.10
2022-09-04T11:08:52.728Z,24.60
2022-09-04T11:11:32.143Z,23.55
2022-09-04T11:14:25.505Z,26.45
2022-09-04T11:17:32.313Z,22.02
2022-09-04T11:20:26.655Z,22.05
2022-09-04T11:23:21.540Z,19.75
2022-09-04T11:26:29.262Z,22.70
2022-09-04T11:29:10.995Z,19.38
2022-09-04T11:31:58.336Z,21.05
2022-09-04T11:35:14.945Z,18.30
2022-09-04T11:38:03.165Z,17.45
2022-09-04T11:40:57.617Z,15.82
2022-09-04T11:43:50.437Z,14.95
2022-09-04T11:46:47.852Z,15.55
2022-09-04T11:49:40.861Z,19.80
2022-09-04T11:52:18.113Z,20.20
2022-09-04T11:55:19.450Z,17.00
2022-09-04T11:58:00.757Z,17.50
2022-09-04T12:00:36.612Z,19.40
2022-09-04T12:03:30.539Z,15.52
2022-09-04T12:06:20.042Z,17.70
2022-09-04T12:09:32.555Z,15.65
2022-09-04T12:12:25.753Z,17.13
2022-09-04T12:15:18.041Z,13.25
2022-09-04T12:21:18.182Z,13.05
2022-09-04T12:24:23.816Z,10.57
2022-09-04T12:27:16.423Z,12.57
2022-09-04T12:30:06.158Z,10.35
2022-09-04T12:33:12.986Z,9.23
2022-09-04T12:36:17.788Z,12.07
2022-09-04T12:39:16.155Z,10.77
2022-09-04T12:41:51.448Z,8.50
2022-09-04T12:44:27.298Z,7.65
2022-09-04T12:47:09.698Z,7.25
2022-09-04T12:49:51.363Z,8.35
2022-09-04T12:52:31.154Z,8.85
2022-09-04T12:55:11.057Z,7.43
2022-09-04T12:57:47.971Z,7.88
2022-09-04T13:00:18.438Z,8.00
2022-09-04T13:02:57.168Z,7.60
2022-09-04T13:05:53.102Z,7.05
2022-09-04T13:08:33.222Z,6.07
2022-09-04T13:11:18.656Z,6.50
2022-09-04T13:13:56.771Z,7.40
2022-09-04T13:16:32.088Z,6.53
2022-09-04T13:19:13.421Z,5.97
2022-09-04T13:22:03.962Z,6.57
2022-09-04T13:24:44.457Z,5.60
2022-09-04T13:27:32.146Z,5.35
2022-09-04T13:30:06.660Z,5.03
2022-09-04T13:33:01.209Z,4.90
2022-09-04T13:35:42.623Z,5.03
2022-09-04T13:38:43.821Z,4.78
2022-09-04T13:41:51.175Z,4.65
2022-09-04T13:44:55.421Z,4.85
2022-09-04T13:47:32.096Z,5.35
2022-09-04T13:50:08.521Z,6.72
2022-09-04T13:52:43.639Z,6.15
2022-09-04T13:55:17.974Z,5.15
2022-09-04T13:57:59.964Z,4.60
2022-09-04T14:00:32.336Z,4.95
2022-09-04T14:03:03.709Z,4.53
2022-09-04T14:05:34.776Z,4.35
2022-09-04T14:08:06.354Z,4.10
2022-09-04T14:10:53.368Z,4.20
2022-09-04T14:13:35.047Z,4.00
2022-09-04T14:16:11.855Z,3.78
2022-09-04T14:18:57.818Z,4.13
2022-09-04T14:21:40.761Z,3.90
2022-09-04T14:24:18.914Z,3.72
2022-09-04T14:26:52.572Z,3.60
2022-09-04T14:29:31.244Z,3.85
2022-09-04T14:32:10.488Z,4.10
2022-09-04T14:34:51.104Z,3.88
2022-09-04T14:37:48.293Z,3.95
2022-09-04T14:40:21.233Z,3.90
2022-09-04T14:42:58.438Z,4.40
2022-09-04T14:45:36.993Z,4.25
2022-09-04T14:48:10.066Z,3.97
2022-09-04T14:50:48.315Z,3.78
2022-09-04T14:53:23.702Z,3.60
2022-09-04T14:56:21.818Z,4.65
2022-09-04T14:58:57.382Z,3.88
2022-09-04T15:01:26.371Z,4.22
2022-09-04T15:04:00.628Z,4.07
2022-09-04T15:06:44.620Z,4.53
2022-09-04T15:09:23.647Z,4.30
2022-09-04T15:12:21.061Z,4.38
2022-09-04T15:14:49.724Z,4.53
2022-09-04T15:17:28.406Z,4.93
2022-09-04T15:20:02.792Z,4.18
2022-09-04T15:22:37.678Z,4.72
2022-09-04T15:25:09.776Z,4.63
2022-09-04T15:27:47.047Z,4.55
2022-09-04T15:30:21.118Z,4.60
2022-09-04T15:32:50.560Z,4.63
2022-09-04T15:35:26.851Z,4.72
2022-09-04T15:38:07.334Z,6.00
2022-09-04T15:40:39.002Z,6.22
2022-09-04T15:43:18.586Z,6.20
2022-09-04T15:45:49.030Z,7.03
2022-09-04T15:48:30.278Z,7.60
2022-09-04T15:51:12.059Z,7.53
2022-09-04T15:53:44.740Z,7.45
2022-09-04T15:56:31.844Z,7.90
2022-09-04T15:59:08.492Z,5.93
2022-09-04T16:01:47.936Z,7.78
2022-09-04T16:04:26.325Z,6.47
2022-09-04T16:07:01.868Z,9.38
2022-09-04T16:09:37.490Z,7.45
2022-09-04T16:12:13.459Z,7.30
2022-09-04T16:14:46.330Z,7.97
2022-09-04T16:17:20.149Z,8.23
2022-09-04T16:19:54.324Z,8.50
2022-09-04T16:22:38.726Z,8.73
2022-09-04T16:25:11.084Z,10.68
2022-09-04T16:27:45.353Z,9.88
2022-09-04T16:30:30.152Z,9.38
2022-09-04T16:32:58.801Z,8.15
2022-09-04T16:35:28.867Z,8.60
2022-09-04T16:38:06.945Z,8.23
2022-09-04T16:40:39.065Z,7.30
2022-09-04T16:43:19.490Z,6.90
2022-09-04T16:45:51.454Z,7.18
2022-09-04T16:48:34.692Z,6.43
2022-09-04T16:51:09.817Z,5.80
2022-09-04T16:54:05.713Z,7.03
2022-09-04T16:56:40.441Z,7.97
2022-09-04T16:59:21.748Z,6.93
2022-09-04T17:01:58.305Z,6.97
2022-09-04T17:04:31.925Z,7.60
2022-09-04T17:07:11.057Z,7.00
2022-09-04T17:09:48.983Z,6.60
2022-09-04T17:12:26.108Z,7.30
2022-09-04T17:14:58.710Z,5.97
2022-09-04T17:17:32.264Z,5.60
2022-09-04T17:20:09.205Z,6.28
2022-09-04T17:28:55.908Z,6.60
2022-09-04T17:29:10.494Z,6.65
2022-09-04T17:29:29.630Z,6.13
2022-09-04T17:31:53.614Z,6.72
2022-09-04T17:40:37.400Z,5.80
2022-09-04T17:40:50.972Z,5.15
2022-09-04T17:43:36.587Z,5.53
2022-09-04T17:46:20.712Z,6.05
2022-09-04T17:48:48.715Z,6.53
2022-09-04T17:51:22.640Z,7.13
2022-09-04T17:53:55.823Z,7.20
2022-09-04T17:56:28.938Z,8.38
2022-09-04T17:59:02.869Z,7.47
2022-09-04T18:01:36.792Z,9.63
2022-09-04T18:04:23.880Z,8.68
2022-09-04T18:06:58.901Z,10.90
2022-09-04T18:09:33.104Z,8.40
2022-09-04T18:12:11.109Z,7.82
2022-09-04T18:14:53.168Z,7.95
2022-09-04T18:17:47.968Z,8.75
2022-09-04T18:20:25.017Z,8.80
2022-09-04T18:23:23.242Z,8.90
2022-09-04T18:25:55.122Z,9.82
2022-09-04T18:28:27.734Z,9.77
2022-09-04T18:37:06.060Z,9.60
2022-09-04T18:37:21.504Z,9.43
2022-09-04T18:37:22.648Z,9.65
2022-09-04T18:40:03.885Z,10.15
2022-09-04T18:49:43.074Z,9.70
2022-09-04T18:50:37.434Z,11.68
2022-09-04T18:51:05.797Z,10.30
2022-09-04T18:51:25.594Z,12.32
2022-09-04T18:53:57.643Z,11.52
2022-09-04T18:56:30.071Z,12.15
2022-09-04T18:59:03.266Z,10.48
2022-09-04T19:01:41.071Z,9.77
2022-09-04T19:04:43.432Z,10.98
2022-09-04T19:07:20.918Z,11.85
2022-09-04T19:10:01.935Z,10.18
2022-09-04T19:12:47.611Z,11.48
2022-09-04T19:15:37.054Z,11.68
2022-09-04T19:18:13.681Z,12.68
2022-09-04T19:20:48.176Z,12.68
2022-09-04T19:23:24.645Z,14.45
2022-09-04T19:25:55.474Z,13.15
2022-09-04T19:28:26.387Z,13.68
2022-09-04T19:30:59.322Z,12.82
2022-09-04T19:33:41.739Z,14.45
2022-09-04T19:36:20.975Z,14.10
2022-09-04T19:45:55.415Z,14.45
2022-09-04T19:46:04.420Z,14.05
2022-09-04T19:46:14.569Z,16.67
2022-09-04T19:47:38.704Z,17.63
2022-09-04T19:53:19.868Z,16.23
2022-09-04T19:53:34.524Z,16.40
2022-09-04T19:56:07.304Z,17.73
2022-09-04T19:58:39.704Z,17.52
2022-09-04T20:01:16.553Z,18.50
2022-09-04T20:03:49.618Z,18.88
2022-09-04T20:06:25.769Z,17.38
2022-09-04T20:09:03.211Z,18.67
2022-09-04T20:11:39.569Z,18.55
2022-09-04T20:14:15.247Z,18.95
2022-09-04T20:17:07.382Z,18.85
2022-09-04T20:19:39.184Z,21.23
2022-09-04T20:22:15.710Z,21.77
2022-09-04T20:24:59.845Z,21.48
2022-09-04T20:27:36.174Z,22.33
2022-09-04T20:30:11.939Z,23.48
2022-09-04T20:32:48.135Z,22.05
2022-09-04T20:35:33.341Z,21.75
2022-09-04T20:38:12.437Z,21.52
2022-09-04T20:40:45.545Z,22.48
2022-09-04T20:43:26.589Z,22.50
2022-09-04T20:52:43.865Z,21.17
2022-09-04T20:52:50.938Z,25.00
2022-09-04T20:52:55.060Z,24.38
2022-09-04T20:55:13.220Z,26.92
2022-09-04T21:03:13.782Z,24.73
2022-09-04T21:03:24.605Z,25.67
2022-09-04T21:04:00.693Z,26.50
2022-09-04T21:06:35.558Z,26.63
2022-09-04T21:09:30.360Z,24.45
2022-09-04T21:12:13.127Z,27.88
2022-09-04T21:14:46.465Z,27.88
2022-09-04T21:17:45.677Z,27.20
2022-09-04T21:20:34.466Z,24.02
2022-09-04T21:23:27.911Z,25.85
2022-09-04T21:26:05.187Z,27.67
2022-09-04T21:28:58.329Z,27.77
2022-09-04T21:32:06.445Z,27.23
2022-09-04T21:34:57.770Z,25.83
2022-09-04T21:37:39.972Z,28.65
2022-09-04T21:40:50.855Z,24.58
2022-09-04T21:43:50.090Z,23.40
2022-09-04T21:46:31.247Z,25.65
2022-09-04T21:49:33.108Z,22.70
2022-09-04T21:52:24.781Z,22.95
2022-09-04T21:58:47.456Z,22.52
2022-09-04T22:02:35.463Z,23.98
2022-09-04T22:02:42.418Z,23.02
2022-09-04T22:04:42.423Z,21.15
2022-09-04T22:12:11.764Z,19.75
2022-09-04T22:13:33.383Z,20.08
2022-09-04T22:13:48.074Z,20.48
2022-09-04T22:16:30.961Z,19.48
2022-09-04T22:19:17.045Z,18.00
2022-09-04T22:22:03.229Z,19.08
2022-09-04T22:25:11.689Z,18.45
2022-09-04T22:28:17.437Z,17.63
2022-09-04T22:31:10.751Z,16.05
2022-09-04T22:34:17.122Z,15.18
2022-09-04T22:37:17.695Z,13.43
2022-09-04T22:40:05.554Z,12.55
2022-09-04T22:42:51.538Z,12.32
2022-09-04T22:45:35.721Z,10.88
2022-09-04T22:48:24.339Z,10.68
2022-09-04T22:51:06.169Z,10.10
2022-09-04T22:54:06.758Z,9.57
2022-09-04T22:56:51.897Z,11.75
2022-09-04T22:59:41.154Z,11.10
2022-09-04T23:06:24.897Z,9.35
2022-09-04T23:13:52.839Z,8.95
2022-09-04T23:13:52.954Z,8.90
2022-09-04T23:15:55.605Z,8.40
2022-09-04T23:20:42.480Z,8.48
2022-09-04T23:26:34.533Z,7.90
2022-09-04T23:26:36.797Z,8.25
2022-09-04T23:28:23.111Z,7.57
2022-09-04T23:31:08.578Z,7.15
2022-09-04T23:34:15.472Z,7.10
2022-09-04T23:37:15.189Z,6.97
2022-09-04T23:40:06.197Z,7.20
2022-09-04T23:43:00.270Z,7.22
2022-09-04T23:46:00.995Z,6.63
2022-09-04T23:49:06.607Z,5.70
2022-09-04T23:51:42.462Z,6.45
2022-09-04T23:54:40.137Z,5.40
2022-09-04T23:57:26.090Z,4.80
